sensor_id;sensor_type;location;lat;lon;timestamp;P1;durP1;ratioP1;P2;durP2;ratioP2
14734;SDS011;7458;49.002;8.472;2022-09-09T00:00:53;1296.10;;;999.90;;
14734;SDS011;7458;49.002;8.472;2022-09-09T00:10:18;1218.05;;;999.90;;
14734;SDS011;7458;49.002;8.472;2022-09-09T00:27:44;1318.38;;;999.90;;
14734;SDS011;7458;49.002;8.472;2022-09-09T00:30:19;1327.00;;;999.90;;
14734;SDS011;7458;49.002;8.472;2022-09-09T00:32:50;1314.70;;;999.90;;
14734;SDS011;7458;49.002;8.472;2022-09-09T00:44:04;1213.88;;;999.90;;
14734;SDS011;7458;49.002;8.472;2022-09-09T00:50:14;1293.80;;;999.90;;
14734;SDS011;7458;49.002;8.472;2022-09-09T00:56:22;1330.47;;;999.90;;
14734;SDS011;7458;49.002;8.472;2022-09-09T00:59:07;1330.00;;;999.90;;
14734;SDS011;7458;49.002;8.472;2022-09-09T01:01:56;1341.70;;;999.90;;
14734;SDS011;7458;49.002;8.472;2022-09-09T01:04:27;1340.40;;;999.90;;
14734;SDS011;7458;49.002;8.472;2022-09-09T01:07:03;1267.43;;;999.90;;
14734;SDS011;7458;49.002;8.472;2022-09-09T01:09:50;1340.50;;;999.90;;
14734;SDS011;7458;49.002;8.472;2022-09-09T01:12:41;1323.40;;;999.90;;
14734;SDS011;7458;49.002;8.472;2022-09-09T01:15:14;1327.47;;;999.90;;
14734;SDS011;7458;49.002;8.472;2022-09-09T01:18:01;1271.28;;;999.90;;
14734;SDS011;7458;49.002;8.472;2022-09-09T01:20:55;1247.65;;;999.90;;
14734;SDS011;7458;49.002;8.472;2022-09-09T01:26:48;1313.38;;;999.90;;
14734;SDS011;7458;49.002;8.472;2022-09-09T01:29:20;1312.53;;;999.90;;
14734;SDS011;7458;49.002;8.472;2022-09-09T01:31:52;1297.28;;;999.90;;
14734;SDS011;7458;49.002;8.472;2022-09-09T01:34:45;1294.72;;;999.90;;
14734;SDS011;7458;49.002;8.472;2022-09-09T01:37:11;1302.03;;;999.90;;
14734;SDS011;7458;49.002;8.472;2022-09-09T01:39:38;1218.07;;;999.90;;
14734;SDS011;7458;49.002;8.472;2022-09-09T01:42:10;1294.32;;;999.90;;
14734;SDS011;7458;49.002;8.472;2022-09-09T01:44:41;1249.35;;;999.90;;
14734;SDS011;7458;49.002;8.472;2022-09-09T01:47:07;1305.85;;;999.90;;
14734;SDS011;7458;49.002;8.472;2022-09-09T01:49:33;1272.15;;;999.90;;
14734;SDS011;7458;49.002;8.472;2022-09-09T01:52:00;1280.38;;;999.90;;
14734;SDS011;7458;49.002;8.472;2022-09-09T01:54:28;1299.93;;;999.90;;
14734;SDS011;7458;49.002;8.472;2022-09-09T02:02:38;1370.63;;;999.90;;
14734;SDS011;7458;49.002;8.472;2022-09-09T02:08:15;1275.80;;;999.90;;
14734;SDS011;7458;49.002;8.472;2022-09-09T02:10:54;1335.00;;;999.90;;
14734;SDS011;7458;49.002;8.472;2022-09-09T02:13:26;1333.18;;;999.90;;
14734;SDS011;7458;49.002;8.472;2022-09-09T02:16:01;1261.65;;;999.90;;
14734;SDS011;7458;49.002;8.472;2022-09-09T02:18:40;1262.80;;;999.90;;
14734;SDS011;7458;49.002;8.472;2022-09-09T02:21:15;1250.53;;;999.90;;
14734;SDS011;7458;49.002;8.472;2022-09-09T02:23:43;1281.45;;;999.90;;
14734;SDS011;7458;49.002;8.472;2022-09-09T02:26:17;1290.20;;;999.90;;
14734;SDS011;7458;49.002;8.472;2022-09-09T02:28:48;1336.03;;;999.90;;
14734;SDS011;7458;49.002;8.472;2022-09-09T02:31:17;1277.35;;;999.90;;
14734;SDS011;7458;49.002;8.472;2022-09-09T02:33:51;1345.35;;;999.90;;
14734;SDS011;7458;49.002;8.472;2022-09-09T02:36:25;1272.65;;;999.90;;
14734;SDS011;7458;49.002;8.472;2022-09-09T02:38:58;1282.18;;;999.90;;
14734;SDS011;7458;49.002;8.472;2022-09-09T02:41:26;1262.38;;;999.90;;
14734;SDS011;7458;49.002;8.472;2022-09-09T02:43:58;1321.15;;;999.90;;
14734;SDS011;7458;49.002;8.472;2022-09-09T02:46:36;1270.78;;;999.90;;
14734;SDS011;7458;49.002;8.472;2022-09-09T02:49:29;1421.40;;;999.90;;
14734;SDS011;7458;49.002;8.472;2022-09-09T02:52:15;1358.63;;;999.90;;
14734;SDS011;7458;49.002;8.472;2022-09-09T02:54:51;1347.95;;;999.90;;
14734;SDS011;7458;49.002;8.472;2022-09-09T02:57:28;1336.32;;;999.90;;
14734;SDS011;7458;49.002;8.472;2022-09-09T02:59:58;1338.13;;;999.90;;
14734;SDS011;7458;49.002;8.472;2022-09-09T03:02:25;1279.05;;;999.90;;
14734;SDS011;7458;49.002;8.472;2022-09-09T03:04:51;1367.03;;;999.90;;
14734;SDS011;7458;49.002;8.472;2022-09-09T03:07:17;1371.78;;;999.90;;
14734;SDS011;7458;49.002;8.472;2022-09-09T03:09:44;1365.40;;;999.90;;
14734;SDS011;7458;49.002;8.472;2022-09-09T03:12:10;1324.72;;;999.90;;
14734;SDS011;7458;49.002;8.472;2022-09-09T03:14:37;1367.82;;;999.90;;
14734;SDS011;7458;49.002;8.472;2022-09-09T03:17:04;1300.78;;;999.90;;
14734;SDS011;7458;49.002;8.472;2022-09-09T03:19:31;1360.90;;;999.90;;
14734;SDS011;7458;49.002;8.472;2022-09-09T03:21:59;1419.43;;;999.90;;
14734;SDS011;7458;49.002;8.472;2022-09-09T03:24:25;1381.40;;;999.90;;
14734;SDS011;7458;49.002;8.472;2022-09-09T03:26:51;1308.15;;;999.90;;
14734;SDS011;7458;49.002;8.472;2022-09-09T03:29:17;1280.45;;;999.90;;
14734;SDS011;7458;49.002;8.472;2022-09-09T03:31:43;1328.38;;;999.90;;
14734;SDS011;7458;49.002;8.472;2022-09-09T03:34:09;1317.28;;;999.90;;
14734;SDS011;7458;49.002;8.472;2022-09-09T03:36:36;1246.97;;;999.90;;
14734;SDS011;7458;49.002;8.472;2022-09-09T03:39:02;1312.60;;;999.90;;
14734;SDS011;7458;49.002;8.472;2022-09-09T03:41:28;1258.88;;;999.90;;
14734;SDS011;7458;49.002;8.472;2022-09-09T03:43:55;1252.65;;;999.90;;
14734;SDS011;7458;49.002;8.472;2022-09-09T03:46:22;1308.75;;;999.90;;
14734;SDS011;7458;49.002;8.472;2022-09-09T03:48:50;1234.93;;;999.90;;
14734;SDS011;7458;49.002;8.472;2022-09-09T03:51:17;1229.20;;;999.90;;
14734;SDS011;7458;49.002;8.472;2022-09-09T03:53:43;1251.72;;;999.90;;
14734;SDS011;7458;49.002;8.472;2022-09-09T03:56:09;1320.18;;;999.90;;
14734;SDS011;7458;49.002;8.472;2022-09-09T03:58:38;1261.65;;;999.90;;
14734;SDS011;7458;49.002;8.472;2022-09-09T04:01:11;1304.80;;;999.90;;
14734;SDS011;7458;49.002;8.472;2022-09-09T04:03:39;1307.88;;;999.90;;
14734;SDS011;7458;49.002;8.472;2022-09-09T04:06:06;1301.18;;;999.90;;
14734;SDS011;7458;49.002;8.472;2022-09-09T04:08:34;1258.30;;;999.90;;
14734;SDS011;7458;49.002;8.472;2022-09-09T04:11:01;1265.97;;;999.90;;
14734;SDS011;7458;49.002;8.472;2022-09-09T04:13:31;1260.88;;;999.90;;
14734;SDS011;7458;49.002;8.472;2022-09-09T04:15:59;1325.07;;;999.90;;
14734;SDS011;7458;49.002;8.472;2022-09-09T04:18:28;1377.10;;;999.90;;
14734;SDS011;7458;49.002;8.472;2022-09-09T04:20:55;1370.68;;;999.90;;
14734;SDS011;7458;49.002;8.472;2022-09-09T04:23:25;1371.32;;;999.90;;
14734;SDS011;7458;49.002;8.472;2022-09-09T04:25:56;1354.70;;;999.90;;
14734;SDS011;7458;49.002;8.472;2022-09-09T04:28:25;1311.05;;;999.90;;
14734;SDS011;7458;49.002;8.472;2022-09-09T04:30:54;1353.32;;;999.90;;
14734;SDS011;7458;49.002;8.472;2022-09-09T04:33:23;1374.80;;;999.90;;
14734;SDS011;7458;49.002;8.472;2022-09-09T04:35:51;1341.53;;;999.90;;
14734;SDS011;7458;49.002;8.472;2022-09-09T04:38:18;1408.55;;;999.90;;
14734;SDS011;7458;49.002;8.472;2022-09-09T04:40:48;1419.85;;;999.90;;
14734;SDS011;7458;49.002;8.472;2022-09-09T04:43:16;1426.35;;;999.90;;
14734;SDS011;7458;49.002;8.472;2022-09-09T04:45:47;1456.22;;;999.90;;
14734;SDS011;7458;49.002;8.472;2022-09-09T04:48:16;1424.90;;;999.90;;
14734;SDS011;7458;49.002;8.472;2022-09-09T04:50:43;1371.93;;;999.90;;
14734;SDS011;7458;49.002;8.472;2022-09-09T04:53:09;1367.30;;;999.90;;
14734;SDS011;7458;49.002;8.472;2022-09-09T04:55:35;1379.25;;;999.90;;
14734;SDS011;7458;49.002;8.472;2022-09-09T04:58:04;1364.35;;;999.90;;
14734;SDS011;7458;49.002;8.472;2022-09-09T05:00:33;1395.15;;;999.90;;
14734;SDS011;7458;49.002;8.472;2022-09-09T05:03:04;1406.43;;;999.90;;
14734;SDS011;7458;49.002;8.472;2022-09-09T05:05:31;1397.72;;;999.90;;
14734;SDS011;7458;49.002;8.472;2022-09-09T05:08:04;1384.88;;;999.90;;
14734;SDS011;7458;49.002;8.472;2022-09-09T05:10:33;1374.88;;;999.90;;
14734;SDS011;7458;49.002;8.472;2022-09-09T05:13:02;1392.78;;;999.90;;
14734;SDS011;7458;49.002;8.472;2022-09-09T05:15:29;1399.97;;;999.90;;
14734;SDS011;7458;49.002;8.472;2022-09-09T05:18:00;1387.65;;;999.90;;
14734;SDS011;7458;49.002;8.472;2022-09-09T05:20:27;1344.40;;;999.90;;
14734;SDS011;7458;49.002;8.472;2022-09-09T05:22:54;1293.00;;;999.90;;
14734;SDS011;7458;49.002;8.472;2022-09-09T05:25:21;1303.82;;;999.90;;
14734;SDS011;7458;49.002;8.472;2022-09-09T05:27:50;1354.45;;;999.90;;
14734;SDS011;7458;49.002;8.472;2022-09-09T05:30:15;1311.03;;;999.90;;
14734;SDS011;7458;49.002;8.472;2022-09-09T05:32:43;1309.72;;;999.90;;
14734;SDS011;7458;49.002;8.472;2022-09-09T05:35:09;1320.38;;;999.90;;
14734;SDS011;7458;49.002;8.472;2022-09-09T05:37:35;1310.90;;;999.90;;
14734;SDS011;7458;49.002;8.472;2022-09-09T05:40:01;1311.78;;;999.90;;
14734;SDS011;7458;49.002;8.472;2022-09-09T05:42:30;1306.78;;;999.90;;
14734;SDS011;7458;49.002;8.472;2022-09-09T05:44:57;1305.05;;;999.90;;
14734;SDS011;7458;49.002;8.472;2022-09-09T05:47:23;1356.32;;;999.90;;
14734;SDS011;7458;49.002;8.472;2022-09-09T05:49:49;1305.53;;;999.90;;
14734;SDS011;7458;49.002;8.472;2022-09-09T05:52:15;1361.75;;;999.90;;
14734;SDS011;7458;49.002;8.472;2022-09-09T05:54:40;1364.80;;;999.90;;
14734;SDS011;7458;49.002;8.472;2022-09-09T05:57:08;1358.43;;;999.90;;
14734;SDS011;7458;49.002;8.472;2022-09-09T05:59:33;1301.38;;;999.90;;
14734;SDS011;7458;49.002;8.472;2022-09-09T06:01:59;1287.50;;;999.90;;
14734;SDS011;7458;49.002;8.472;2022-09-09T06:04:25;1286.35;;;999.90;;
14734;SDS011;7458;49.002;8.472;2022-09-09T06:06:51;1370.75;;;999.90;;
14734;SDS011;7458;49.002;8.472;2022-09-09T06:09:16;1378.15;;;999.90;;
14734;SDS011;7458;49.002;8.472;2022-09-09T06:11:43;1365.22;;;999.90;;
14734;SDS011;7458;49.002;8.472;2022-09-09T06:14:09;1324.65;;;999.90;;
14734;SDS011;7458;49.002;8.472;2022-09-09T06:16:35;1305.00;;;999.90;;
14734;SDS011;7458;49.002;8.472;2022-09-09T06:19:02;1308.97;;;999.90;;
14734;SDS011;7458;49.002;8.472;2022-09-09T06:21:32;1314.53;;;999.90;;
14734;SDS011;7458;49.002;8.472;2022-09-09T06:24:03;1372.88;;;999.90;;
14734;SDS011;7458;49.002;8.472;2022-09-09T06:26:32;1312.22;;;999.90;;
14734;SDS011;7458;49.002;8.472;2022-09-09T06:29:06;1291.33;;;999.90;;
14734;SDS011;7458;49.002;8.472;2022-09-09T06:31:34;1289.50;;;999.90;;
14734;SDS011;7458;49.002;8.472;2022-09-09T06:34:01;1360.80;;;999.90;;
14734;SDS011;7458;49.002;8.472;2022-09-09T06:36:31;1285.30;;;999.90;;
14734;SDS011;7458;49.002;8.472;2022-09-09T06:39:00;1365.05;;;999.90;;
14734;SDS011;7458;49.002;8.472;2022-09-09T06:41:27;1347.25;;;999.90;;
14734;SDS011;7458;49.002;8.472;2022-09-09T06:43:55;1340.43;;;999.90;;
14734;SDS011;7458;49.002;8.472;2022-09-09T06:46:22;1322.47;;;999.90;;
14734;SDS011;7458;49.002;8.472;2022-09-09T06:48:55;1270.35;;;999.90;;
14734;SDS011;7458;49.002;8.472;2022-09-09T06:51:24;1284.85;;;999.90;;
14734;SDS011;7458;49.002;8.472;2022-09-09T06:53:59;1262.05;;;999.90;;
14734;SDS011;7458;49.002;8.472;2022-09-09T06:56:31;1261.32;;;999.90;;
14734;SDS011;7458;49.002;8.472;2022-09-09T06:59:01;1342.72;;;999.90;;
14734;SDS011;7458;49.002;8.472;2022-09-09T07:01:31;1352.22;;;999.90;;
14734;SDS011;7458;49.002;8.472;2022-09-09T07:03:59;1343.60;;;999.90;;
14734;SDS011;7458;49.002;8.472;2022-09-09T07:06:27;1263.47;;;999.90;;
14734;SDS011;7458;49.002;8.472;2022-09-09T07:08:56;1335.85;;;999.90;;
14734;SDS011;7458;49.002;8.472;2022-09-09T07:11:25;1413.93;;;999.90;;
14734;SDS011;7458;49.002;8.472;2022-09-09T07:13:54;1394.05;;;999.90;;
14734;SDS011;7458;49.002;8.472;2022-09-09T07:16:22;1356.45;;;999.90;;
14734;SDS011;7458;49.002;8.472;2022-09-09T07:18:49;1385.13;;;999.90;;
14734;SDS011;7458;49.002;8.472;2022-09-09T07:21:16;1406.35;;;999.90;;
14734;SDS011;7458;49.002;8.472;2022-09-09T07:23:44;1351.82;;;999.90;;
14734;SDS011;7458;49.002;8.472;2022-09-09T07:28:41;1309.47;;;999.90;;
14734;SDS011;7458;49.002;8.472;2022-09-09T07:31:15;1385.93;;;999.90;;
14734;SDS011;7458;49.002;8.472;2022-09-09T07:33:46;1276.38;;;999.90;;
14734;SDS011;7458;49.002;8.472;2022-09-09T07:36:17;1303.95;;;999.90;;
14734;SDS011;7458;49.002;8.472;2022-09-09T07:38:53;1285.05;;;999.90;;
14734;SDS011;7458;49.002;8.472;2022-09-09T07:41:22;1244.90;;;999.90;;
14734;SDS011;7458;49.002;8.472;2022-09-09T07:43:52;1266.65;;;999.90;;
14734;SDS011;7458;49.002;8.472;2022-09-09T07:46:19;1367.82;;;999.90;;
14734;SDS011;7458;49.002;8.472;2022-09-09T07:48:53;1326.38;;;999.90;;
14734;SDS011;7458;49.002;8.472;2022-09-09T07:51:23;1376.43;;;999.90;;
14734;SDS011;7458;49.002;8.472;2022-09-09T07:53:53;1243.38;;;999.90;;
14734;SDS011;7458;49.002;8.472;2022-09-09T07:56:25;1230.82;;;999.90;;
14734;SDS011;7458;49.002;8.472;2022-09-09T07:58:53;1221.53;;;999.90;;
14734;SDS011;7458;49.002;8.472;2022-09-09T08:01:31;1288.57;;;999.90;;
14734;SDS011;7458;49.002;8.472;2022-09-09T08:04:05;1231.13;;;999.90;;
14734;SDS011;7458;49.002;8.472;2022-09-09T08:06:38;1226.05;;;999.90;;
14734;SDS011;7458;49.002;8.472;2022-09-09T08:09:07;1275.93;;;999.90;;
14734;SDS011;7458;49.002;8.472;2022-09-09T08:11:34;1217.90;;;999.90;;
14734;SDS011;7458;49.002;8.472;2022-09-09T08:14:01;1220.75;;;999.90;;
14734;SDS011;7458;49.002;8.472;2022-09-09T08:16:30;1238.05;;;999.90;;
14734;SDS011;7458;49.002;8.472;2022-09-09T08:18:59;1235.32;;;999.90;;
14734;SDS011;7458;49.002;8.472;2022-09-09T08:21:28;1228.15;;;999.90;;
14734;SDS011;7458;49.002;8.472;2022-09-09T08:23:58;1291.13;;;999.90;;
14734;SDS011;7458;49.002;8.472;2022-09-09T08:26:30;1377.70;;;999.90;;
14734;SDS011;7458;49.002;8.472;2022-09-09T08:29:08;1251.47;;;999.90;;
14734;SDS011;7458;49.002;8.472;2022-09-09T08:31:38;1353.63;;;999.90;;
14734;SDS011;7458;49.002;8.472;2022-09-09T08:34:10;1209.40;;;999.90;;
14734;SDS011;7458;49.002;8.472;2022-09-09T08:36:45;1320.38;;;999.90;;
14734;SDS011;7458;49.002;8.472;2022-09-09T08:39:17;1215.90;;;999.90;;
14734;SDS011;7458;49.002;8.472;2022-09-09T08:45:01;1215.00;;;999.90;;
14734;SDS011;7458;49.002;8.472;2022-09-09T08:50:26;1226.93;;;999.90;;
14734;SDS011;7458;49.002;8.472;2022-09-09T08:53:09;1211.18;;;954.63;;
14734;SDS011;7458;49.002;8.472;2022-09-09T08:55:46;1155.18;;;999.90;;
14734;SDS011;7458;49.002;8.472;2022-09-09T08:58:33;1190.68;;;999.90;;
14734;SDS011;7458;49.002;8.472;2022-09-09T09:06:26;1123.43;;;956.88;;
14734;SDS011;7458;49.002;8.472;2022-09-09T09:09:06;1121.45;;;984.47;;
14734;SDS011;7458;49.002;8.472;2022-09-09T09:11:45;1220.22;;;999.90;;
14734;SDS011;7458;49.002;8.472;2022-09-09T09:17:03;1277.40;;;999.90;;
14734;SDS011;7458;49.002;8.472;2022-09-09T09:19:34;1205.27;;;995.53;;
14734;SDS011;7458;49.002;8.472;2022-09-09T09:30:42;1195.43;;;974.22;;
14734;SDS011;7458;49.002;8.472;2022-09-09T09:33:20;1279.07;;;999.90;;
14734;SDS011;7458;49.002;8.472;2022-09-09T09:36:11;1453.30;;;999.90;;
14734;SDS011;7458;49.002;8.472;2022-09-09T09:38:52;1469.40;;;999.90;;
14734;SDS011;7458;49.002;8.472;2022-09-09T09:41:58;1445.72;;;999.90;;
14734;SDS011;7458;49.002;8.472;2022-09-09T09:44:28;1456.85;;;999.90;;
14734;SDS011;7458;49.002;8.472;2022-09-09T09:49:55;1416.47;;;999.90;;
14734;SDS011;7458;49.002;8.472;2022-09-09T09:52:28;1266.22;;;999.90;;
14734;SDS011;7458;49.002;8.472;2022-09-09T09:54:57;1317.00;;;999.90;;
14734;SDS011;7458;49.002;8.472;2022-09-09T09:57:28;1396.68;;;999.90;;
14734;SDS011;7458;49.002;8.472;2022-09-09T10:00:00;1308.13;;;999.90;;
14734;SDS011;7458;49.002;8.472;2022-09-09T10:02:42;1394.97;;;999.90;;
14734;SDS011;7458;49.002;8.472;2022-09-09T10:05:17;1475.75;;;999.90;;
14734;SDS011;7458;49.002;8.472;2022-09-09T10:07:47;1456.95;;;999.90;;
14734;SDS011;7458;49.002;8.472;2022-09-09T10:14:00;1391.32;;;999.90;;
14734;SDS011;7458;49.002;8.472;2022-09-09T10:22:35;1387.15;;;999.90;;
14734;SDS011;7458;49.002;8.472;2022-09-09T10:25:17;1366.80;;;999.90;;
14734;SDS011;7458;49.002;8.472;2022-09-09T10:33:36;1249.95;;;999.90;;
14734;SDS011;7458;49.002;8.472;2022-09-09T10:36:26;1253.00;;;999.90;;
14734;SDS011;7458;49.002;8.472;2022-09-09T10:44:49;1352.30;;;999.90;;
14734;SDS011;7458;49.002;8.472;2022-09-09T10:56:20;1292.32;;;999.90;;
14734;SDS011;7458;49.002;8.472;2022-09-09T10:58:50;1266.72;;;999.90;;
14734;SDS011;7458;49.002;8.472;2022-09-09T11:01:27;1343.50;;;999.90;;
14734;SDS011;7458;49.002;8.472;2022-09-09T11:04:18;1266.25;;;999.90;;
14734;SDS011;7458;49.002;8.472;2022-09-09T11:06:55;1265.25;;;999.90;;
14734;SDS011;7458;49.002;8.472;2022-09-09T11:09:23;1352.93;;;999.90;;
14734;SDS011;7458;49.002;8.472;2022-09-09T11:11:56;1344.53;;;999.90;;
14734;SDS011;7458;49.002;8.472;2022-09-09T11:17:55;1297.88;;;999.90;;
14734;SDS011;7458;49.002;8.472;2022-09-09T11:20:15;1360.00;;;999.90;;
14734;SDS011;7458;49.002;8.472;2022-09-09T11:25:45;1266.85;;;999.90;;
14734;SDS011;7458;49.002;8.472;2022-09-09T11:31:43;1276.45;;;999.90;;
14734;SDS011;7458;49.002;8.472;2022-09-09T11:34:50;1336.43;;;999.90;;
14734;SDS011;7458;49.002;8.472;2022-09-09T11:42:44;1369.72;;;999.90;;
14734;SDS011;7458;49.002;8.472;2022-09-09T11:45:22;1295.93;;;999.90;;
14734;SDS011;7458;49.002;8.472;2022-09-09T11:47:58;1374.78;;;999.90;;
14734;SDS011;7458;49.002;8.472;2022-09-09T11:53:16;1363.47;;;999.90;;
14734;SDS011;7458;49.002;8.472;2022-09-09T11:55:47;1353.03;;;999.90;;
14734;SDS011;7458;49.002;8.472;2022-09-09T11:58:26;1288.05;;;999.90;;
14734;SDS011;7458;49.002;8.472;2022-09-09T12:00:57;1362.43;;;999.90;;
14734;SDS011;7458;49.002;8.472;2022-09-09T12:08:46;1302.15;;;999.90;;
14734;SDS011;7458;49.002;8.472;2022-09-09T12:11:26;1366.60;;;999.90;;
14734;SDS011;7458;49.002;8.472;2022-09-09T12:13:55;1290.18;;;999.90;;
14734;SDS011;7458;49.002;8.472;2022-09-09T12:16:32;1372.05;;;999.90;;
14734;SDS011;7458;49.002;8.472;2022-09-09T12:19:23;1365.93;;;999.90;;
14734;SDS011;7458;49.002;8.472;2022-09-09T12:21:54;1377.55;;;999.90;;
14734;SDS011;7458;49.002;8.472;2022-09-09T12:24:47;1299.30;;;999.90;;
14734;SDS011;7458;49.002;8.472;2022-09-09T12:27:33;1373.03;;;999.90;;
14734;SDS011;7458;49.002;8.472;2022-09-09T12:30:14;1297.45;;;999.90;;
14734;SDS011;7458;49.002;8.472;2022-09-09T12:32:41;1292.53;;;999.90;;
14734;SDS011;7458;49.002;8.472;2022-09-09T12:37:46;1274.00;;;999.90;;
14734;SDS011;7458;49.002;8.472;2022-09-09T12:40:30;1351.18;;;999.90;;
14734;SDS011;7458;49.002;8.472;2022-09-09T12:43:00;1354.65;;;999.90;;
14734;SDS011;7458;49.002;8.472;2022-09-09T12:45:31;1348.20;;;999.90;;
14734;SDS011;7458;49.002;8.472;2022-09-09T12:48:08;1360.60;;;999.90;;
14734;SDS011;7458;49.002;8.472;2022-09-09T12:50:37;1330.15;;;999.90;;
14734;SDS011;7458;49.002;8.472;2022-09-09T12:53:12;1275.75;;;999.90;;
14734;SDS011;7458;49.002;8.472;2022-09-09T12:56:06;1262.28;;;999.90;;
14734;SDS011;7458;49.002;8.472;2022-09-09T12:58:44;1336.18;;;999.90;;
14734;SDS011;7458;49.002;8.472;2022-09-09T13:01:22;1267.60;;;999.90;;
14734;SDS011;7458;49.002;8.472;2022-09-09T13:03:57;1349.43;;;999.90;;
14734;SDS011;7458;49.002;8.472;2022-09-09T13:06:24;1337.30;;;999.90;;
14734;SDS011;7458;49.002;8.472;2022-09-09T13:08:53;1333.15;;;999.90;;
14734;SDS011;7458;49.002;8.472;2022-09-09T13:11:25;1345.45;;;999.90;;
14734;SDS011;7458;49.002;8.472;2022-09-09T13:14:12;1253.78;;;999.90;;
14734;SDS011;7458;49.002;8.472;2022-09-09T13:16:54;1340.38;;;999.90;;
14734;SDS011;7458;49.002;8.472;2022-09-09T13:19:23;1339.32;;;999.90;;
14734;SDS011;7458;49.002;8.472;2022-09-09T13:21:53;1337.55;;;999.90;;
14734;SDS011;7458;49.002;8.472;2022-09-09T13:24:33;1247.22;;;999.90;;
14734;SDS011;7458;49.002;8.472;2022-09-09T13:27:01;1241.03;;;999.90;;
14734;SDS011;7458;49.002;8.472;2022-09-09T13:29:52;1325.68;;;999.90;;
14734;SDS011;7458;49.002;8.472;2022-09-09T13:32:22;1230.68;;;999.90;;
14734;SDS011;7458;49.002;8.472;2022-09-09T13:34:58;1375.70;;;999.90;;
14734;SDS011;7458;49.002;8.472;2022-09-09T13:39:53;1330.88;;;999.90;;
14734;SDS011;7458;49.002;8.472;2022-09-09T13:42:24;1233.50;;;999.90;;
14734;SDS011;7458;49.002;8.472;2022-09-09T13:44:54;1313.78;;;999.90;;
14734;SDS011;7458;49.002;8.472;2022-09-09T13:47:27;1302.18;;;999.90;;
14734;SDS011;7458;49.002;8.472;2022-09-09T13:50:09;1199.78;;;999.90;;
14734;SDS011;7458;49.002;8.472;2022-09-09T13:52:48;1274.90;;;999.90;;
14734;SDS011;7458;49.002;8.472;2022-09-09T13:55:18;1264.45;;;999.90;;
14734;SDS011;7458;49.002;8.472;2022-09-09T13:57:59;1194.18;;;998.38;;
14734;SDS011;7458;49.002;8.472;2022-09-09T14:00:31;1193.65;;;991.63;;
14734;SDS011;7458;49.002;8.472;2022-09-09T14:03:00;1196.47;;;976.33;;
14734;SDS011;7458;49.002;8.472;2022-09-09T14:05:27;1195.90;;;966.53;;
14734;SDS011;7458;49.002;8.472;2022-09-09T14:07:55;1182.25;;;939.20;;
14734;SDS011;7458;49.002;8.472;2022-09-09T14:10:22;1179.18;;;999.90;;
14734;SDS011;7458;49.002;8.472;2022-09-09T14:12:48;1184.35;;;946.95;;
14734;SDS011;7458;49.002;8.472;2022-09-09T14:15:14;1187.82;;;999.90;;
14734;SDS011;7458;49.002;8.472;2022-09-09T14:17:40;1189.15;;;999.90;;
14734;SDS011;7458;49.002;8.472;2022-09-09T14:20:06;1230.18;;;999.90;;
14734;SDS011;7458;49.002;8.472;2022-09-09T14:22:33;1209.28;;;999.90;;
14734;SDS011;7458;49.002;8.472;2022-09-09T14:25:01;1206.90;;;999.90;;
14734;SDS011;7458;49.002;8.472;2022-09-09T14:27:28;1240.25;;;999.90;;
14734;SDS011;7458;49.002;8.472;2022-09-09T14:29:55;1196.63;;;998.65;;
14734;SDS011;7458;49.002;8.472;2022-09-09T14:32:21;1179.30;;;999.90;;
14734;SDS011;7458;49.002;8.472;2022-09-09T14:34:47;1298.40;;;999.90;;
14734;SDS011;7458;49.002;8.472;2022-09-09T14:37:16;1196.55;;;999.90;;
14734;SDS011;7458;49.002;8.472;2022-09-09T14:39:43;1188.55;;;994.55;;
14734;SDS011;7458;49.002;8.472;2022-09-09T14:42:10;1184.90;;;999.90;;
14734;SDS011;7458;49.002;8.472;2022-09-09T14:44:39;1172.38;;;999.90;;
14734;SDS011;7458;49.002;8.472;2022-09-09T14:47:05;1261.38;;;999.90;;
14734;SDS011;7458;49.002;8.472;2022-09-09T14:49:33;1190.20;;;999.90;;
14734;SDS011;7458;49.002;8.472;2022-09-09T14:52:03;1382.55;;;999.90;;
14734;SDS011;7458;49.002;8.472;2022-09-09T14:54:29;1307.88;;;999.90;;
14734;SDS011;7458;49.002;8.472;2022-09-09T14:56:57;1214.00;;;999.90;;
14734;SDS011;7458;49.002;8.472;2022-09-09T14:59:23;1195.25;;;999.90;;
14734;SDS011;7458;49.002;8.472;2022-09-09T15:01:49;1230.38;;;999.90;;
14734;SDS011;7458;49.002;8.472;2022-09-09T15:04:15;1192.28;;;999.90;;
14734;SDS011;7458;49.002;8.472;2022-09-09T15:06:41;1289.53;;;999.90;;
14734;SDS011;7458;49.002;8.472;2022-09-09T15:09:11;1247.22;;;999.90;;
14734;SDS011;7458;49.002;8.472;2022-09-09T15:11:37;1155.68;;;999.90;;
14734;SDS011;7458;49.002;8.472;2022-09-09T15:14:04;1156.03;;;999.90;;
14734;SDS011;7458;49.002;8.472;2022-09-09T15:16:32;1176.43;;;908.53;;
14734;SDS011;7458;49.002;8.472;2022-09-09T15:19:00;1168.53;;;905.45;;
14734;SDS011;7458;49.002;8.472;2022-09-09T15:21:28;1129.28;;;960.50;;
14734;SDS011;7458;49.002;8.472;2022-09-09T15:23:57;1111.90;;;972.83;;
14734;SDS011;7458;49.002;8.472;2022-09-09T15:26:24;1327.68;;;999.90;;
14734;SDS011;7458;49.002;8.472;2022-09-09T15:28:51;1412.18;;;999.90;;
14734;SDS011;7458;49.002;8.472;2022-09-09T15:31:18;1374.95;;;999.90;;
14734;SDS011;7458;49.002;8.472;2022-09-09T15:33:49;1307.38;;;999.90;;
14734;SDS011;7458;49.002;8.472;2022-09-09T15:36:31;1231.05;;;999.90;;
14734;SDS011;7458;49.002;8.472;2022-09-09T15:39:09;1158.40;;;984.65;;
14734;SDS011;7458;49.002;8.472;2022-09-09T15:41:38;1106.30;;;978.72;;
14734;SDS011;7458;49.002;8.472;2022-09-09T15:44:04;1137.00;;;928.65;;
14734;SDS011;7458;49.002;8.472;2022-09-09T15:49:03;1106.88;;;984.22;;
14734;SDS011;7458;49.002;8.472;2022-09-09T15:51:36;1114.07;;;930.72;;
14734;SDS011;7458;49.002;8.472;2022-09-09T15:54:07;1145.00;;;927.92;;
14734;SDS011;7458;49.002;8.472;2022-09-09T15:56:50;1281.20;;;999.90;;
14734;SDS011;7458;49.002;8.472;2022-09-09T15:59:20;1286.97;;;999.90;;
14734;SDS011;7458;49.002;8.472;2022-09-09T16:01:52;1257.68;;;999.90;;
14734;SDS011;7458;49.002;8.472;2022-09-09T16:04:20;1265.25;;;999.90;;
14734;SDS011;7458;49.002;8.472;2022-09-09T16:06:51;3.85;;;1.85;;
14734;SDS011;7458;49.002;8.472;2022-09-09T16:09:20;4.28;;;1.65;;
14734;SDS011;7458;49.002;8.472;2022-09-09T16:11:46;3.65;;;2.00;;
14734;SDS011;7458;49.002;8.472;2022-09-09T16:14:13;4.18;;;2.65;;
14734;SDS011;7458;49.002;8.472;2022-09-09T16:16:40;4.43;;;2.28;;
14734;SDS011;7458;49.002;8.472;2022-09-09T16:19:08;4.80;;;1.35;;
14734;SDS011;7458;49.002;8.472;2022-09-09T16:21:41;3.00;;;1.25;;
14734;SDS011;7458;49.002;8.472;2022-09-09T16:24:13;5.22;;;2.08;;
14734;SDS011;7458;49.002;8.472;2022-09-09T16:26:43;1.98;;;1.45;;
14734;SDS011;7458;49.002;8.472;2022-09-09T16:29:13;3.13;;;1.60;;
14734;SDS011;7458;49.002;8.472;2022-09-09T16:31:42;4.78;;;2.13;;
14734;SDS011;7458;49.002;8.472;2022-09-09T16:34:09;2.97;;;1.95;;
14734;SDS011;7458;49.002;8.472;2022-09-09T16:36:36;5.85;;;1.58;;
14734;SDS011;7458;49.002;8.472;2022-09-09T16:39:06;2.72;;;1.38;;
14734;SDS011;7458;49.002;8.472;2022-09-09T16:41:37;2.88;;;1.33;;